createdAt,value
2023-11-25T00:02:18.269Z,93739.34
2023-11-25T00:05:26.651Z,93721.94
2023-11-25T00:08:34.905Z,93724.94
2023-11-25T00:11:44.048Z,93722.47
2023-11-25T00:14:52.273Z,93710.88
2023-11-25T00:18:01.947Z,93708.28
2023-11-25T00:21:10.583Z,93713.19
2023-11-25T00:24:18.817Z,93717.13
2023-11-25T00:27:27.031Z,93706.16
2023-11-25T00:30:35.560Z,93711.50
2023-11-25T00:33:45.159Z,93703.66
2023-11-25T00:36:53.767Z,93711.19
2023-11-25T00:40:02.389Z,93720.97
2023-11-25T00:43:10.685Z,93727.50
2023-11-25T00:46:19.201Z,93722.72
2023-11-25T00:49:29.533Z,93723.09
2023-11-25T00:52:38.501Z,93715.38
2023-11-25T00:55:47.758Z,93722.94
2023-11-25T00:58:56.008Z,93724.09
2023-11-25T01:02:04.722Z,93712.44
2023-11-25T01:05:14.544Z,93723.25
2023-11-25T01:08:26.592Z,93729.13
2023-11-25T01:11:37.184Z,93731.56
2023-11-25T01:14:46.004Z,93730.75
2023-11-25T01:17:54.288Z,93742.41
2023-11-25T01:21:04.065Z,93756.72
2023-11-25T01:24:12.845Z,93752.91
2023-11-25T01:27:22.102Z,93748.00
2023-11-25T01:30:32.838Z,93747.00
2023-11-25T01:33:41.849Z,93733.91
2023-11-25T01:36:53.334Z,93738.31
2023-11-25T01:40:01.551Z,93732.53
2023-11-25T01:43:10.215Z,93726.66
2023-11-25T01:46:37.875Z,93741.69
2023-11-25T01:49:46.528Z,93739.44
2023-11-25T01:52:59.321Z,93747.34
2023-11-25T01:56:10.647Z,93737.28
2023-11-25T01:59:21.303Z,93751.19
2023-11-25T02:02:36.227Z,93747.16
2023-11-25T02:05:46.262Z,93772.63
2023-11-25T02:08:55.801Z,93786.38
2023-11-25T02:12:05.930Z,93796.31
2023-11-25T02:15:16.157Z,93803.06
2023-11-25T02:18:25.973Z,93793.25
2023-11-25T02:21:34.364Z,93805.16
2023-11-25T02:24:43.979Z,93828.56
2023-11-25T02:27:54.418Z,93834.59
2023-11-25T02:31:04.058Z,93837.06
2023-11-25T02:34:12.404Z,93847.53
2023-11-25T02:38:40.543Z,93841.97
2023-11-25T02:41:52.853Z,93837.06
2023-11-25T02:45:02.371Z,93853.91
2023-11-25T02:48:11.076Z,93842.13
2023-11-25T02:51:20.538Z,93872.06
2023-11-25T02:54:28.859Z,93877.44
2023-11-25T02:57:39.762Z,93884.81
2023-11-25T03:00:48.704Z,93877.28
2023-11-25T03:04:00.633Z,93899.19
2023-11-25T03:07:08.884Z,93891.03
2023-11-25T03:10:18.135Z,93905.72
2023-11-25T03:13:27.889Z,93924.19
2023-11-25T03:16:36.716Z,93921.88
2023-11-25T03:19:46.002Z,93927.06
2023-11-25T03:22:54.249Z,93923.97
2023-11-25T03:26:03.055Z,93944.91
2023-11-25T03:29:12.900Z,93955.34
2023-11-25T03:32:21.290Z,93960.41
2023-11-25T03:35:30.429Z,93974.13
2023-11-25T03:38:38.891Z,93981.97
2023-11-25T03:41:47.770Z,93997.22
2023-11-25T03:44:57.413Z,94003.28
2023-11-25T03:48:07.927Z,94017.31
2023-11-25T03:51:17.048Z,94026.81
2023-11-25T03:54:25.915Z,94027.63
2023-11-25T03:57:34.258Z,94039.06
2023-11-25T04:00:44.633Z,94025.00
2023-11-25T04:03:52.970Z,94053.09
2023-11-25T04:07:01.667Z,94050.63
2023-11-25T04:10:14.841Z,94056.69
2023-11-25T04:13:23.299Z,94056.69
2023-11-25T04:16:33.028Z,94067.81
2023-11-25T04:19:42.377Z,94063.72
2023-11-25T04:22:50.695Z,94081.50
2023-11-25T04:25:59.491Z,94093.75
2023-11-25T04:29:07.883Z,94105.84
2023-11-25T04:32:17.996Z,94113.69
2023-11-25T04:35:27.074Z,94115.47
2023-11-25T04:38:35.646Z,94134.06
2023-11-25T04:41:44.747Z,94137.66
2023-11-25T04:44:53.294Z,94140.25
2023-11-25T04:48:03.278Z,94146.81
2023-11-25T04:51:11.865Z,94158.09
2023-11-25T04:54:20.347Z,94162.34
2023-11-25T04:57:28.535Z,94166.31
2023-11-25T05:00:37.460Z,94174.66
2023-11-25T05:03:47.478Z,94168.09
2023-11-25T05:06:56.296Z,94165.09
2023-11-25T05:10:06.228Z,94173.94
2023-11-25T05:13:16.952Z,94181.41
2023-11-25T05:16:25.484Z,94186.97
2023-11-25T05:19:35.133Z,94191.88
2023-11-25T05:22:43.573Z,94193.50
2023-11-25T05:25:52.016Z,94198.22
2023-11-25T05:29:01.941Z,94202.31
2023-11-25T05:32:10.598Z,94203.97
2023-11-25T05:35:20.471Z,94210.00
2023-11-25T05:38:30.318Z,94212.78
2023-11-25T05:41:38.604Z,94218.00
2023-11-25T05:44:46.882Z,94217.41
2023-11-25T05:47:55.301Z,94227.50
2023-11-25T05:51:05.297Z,94228.47
2023-11-25T05:54:14.611Z,94230.09
2023-11-25T05:57:22.803Z,94233.25
2023-11-25T06:00:31.389Z,94240.56
2023-11-25T06:03:43.492Z,94240.56
2023-11-25T06:06:53.225Z,94237.41
2023-11-25T06:10:01.507Z,94225.34
2023-11-25T06:13:09.785Z,94217.56
2023-11-25T06:16:18.208Z,94231.84
2023-11-25T06:19:28.168Z,94224.72
2023-11-25T06:22:38.587Z,94217.56
2023-11-25T06:25:46.990Z,94227.44
2023-11-25T06:28:56.252Z,94232.31
2023-11-25T06:32:05.111Z,94234.25
2023-11-25T06:35:13.550Z,94247.69
2023-11-25T06:38:24.672Z,94248.88
2023-11-25T06:41:33.015Z,94244.59
2023-11-25T06:44:42.916Z,94252.63
2023-11-25T06:47:51.904Z,94250.97
2023-11-25T06:51:01.023Z,94248.78
2023-11-25T06:54:11.201Z,94253.81
2023-11-25T06:57:20.606Z,94247.22
2023-11-25T07:00:28.834Z,94247.50
2023-11-25T07:03:37.229Z,94261.50
2023-11-25T07:06:45.504Z,94253.59
2023-11-25T07:09:55.256Z,94253.31
2023-11-25T07:13:03.772Z,94260.28
2023-11-25T07:16:13.532Z,94258.13
2023-11-25T07:19:22.119Z,94262.94
2023-11-25T07:22:30.656Z,94268.16
2023-11-25T07:25:42.951Z,94272.94
2023-11-25T07:28:52.720Z,94264.53
2023-11-25T07:32:01.628Z,94273.53
2023-11-25T07:35:11.681Z,94277.91
2023-11-25T07:38:20.001Z,94268.78
2023-11-25T07:41:29.821Z,94266.75
2023-11-25T07:44:38.275Z,94268.84
2023-11-25T07:47:46.528Z,94259.25
2023-11-25T07:50:54.808Z,94267.44
2023-11-25T07:54:03.138Z,94263.88
2023-11-25T07:57:13.142Z,94260.44
2023-11-25T08:00:26.784Z,94259.75
2023-11-25T08:03:35.278Z,94261.22
2023-11-25T08:06:43.885Z,94260.53
2023-11-25T08:09:53.188Z,94268.00
2023-11-25T08:13:03.301Z,94260.91
2023-11-25T08:16:11.525Z,94269.75
2023-11-25T08:19:22.485Z,94273.78
2023-11-25T08:22:31.116Z,94275.78
2023-11-25T08:25:39.477Z,94282.50
2023-11-25T08:28:52.038Z,94287.03
2023-11-25T08:32:00.522Z,94291.09
2023-11-25T08:35:10.914Z,94292.50
2023-11-25T08:38:19.245Z,94303.59
2023-11-25T08:41:27.530Z,94302.22
2023-11-25T08:44:37.624Z,94313.09
2023-11-25T08:47:45.963Z,94312.69
2023-11-25T08:50:54.360Z,94318.94
2023-11-25T08:54:03.816Z,94320.44
2023-11-25T08:57:12.783Z,94314.63
2023-11-25T09:00:22.974Z,94313.38
2023-11-25T09:03:31.342Z,94324.47
2023-11-25T09:06:40.834Z,94329.22
2023-11-25T09:09:51.007Z,94344.06
2023-11-25T09:13:00.347Z,94337.13
2023-11-25T09:16:10.860Z,94341.34
2023-11-25T09:19:19.315Z,94340.50
2023-11-25T09:22:27.682Z,94344.63
2023-11-25T09:25:36.011Z,94350.75
2023-11-25T09:28:44.258Z,94349.06
2023-11-25T09:31:54.050Z,94339.09
2023-11-25T09:35:02.326Z,94343.19
2023-11-25T09:38:10.569Z,94355.19
2023-11-25T09:41:18.931Z,94342.81
2023-11-25T09:44:28.273Z,94357.78
2023-11-25T09:47:38.904Z,94354.81
2023-11-25T09:50:47.505Z,94354.72
2023-11-25T09:53:58.784Z,94352.25
2023-11-25T09:57:08.903Z,94353.13
2023-11-25T10:00:18.733Z,94350.06
2023-11-25T10:03:35.409Z,94344.19
2023-11-25T10:06:46.720Z,94349.06
2023-11-25T10:09:55.226Z,94353.94
2023-11-25T10:13:04.553Z,94350.78
2023-11-25T10:16:14.902Z,94347.16
2023-11-25T10:19:28.394Z,94353.03
2023-11-25T10:22:47.128Z,94354.91
2023-11-25T10:26:00.081Z,94360.75
2023-11-25T10:29:10.209Z,94363.25
2023-11-25T10:32:18.405Z,94355.06
2023-11-25T10:35:27.931Z,94357.88
2023-11-25T10:38:36.432Z,94356.41
2023-11-25T10:41:44.931Z,94361.84
2023-11-25T10:44:53.665Z,94357.44
2023-11-25T10:48:03.973Z,94346.72
2023-11-25T10:51:15.536Z,94355.50
2023-11-25T10:54:31.725Z,94360.84
2023-11-25T10:57:41.584Z,94356.31
2023-11-25T11:00:52.400Z,94360.28
2023-11-25T11:04:10.578Z,94358.53
2023-11-25T11:07:24.244Z,94343.34
2023-11-25T11:10:43.758Z,94330.56
2023-11-25T11:14:02.589Z,94336.53
2023-11-25T11:17:25.630Z,94330.94
2023-11-25T11:20:42.148Z,94336.09
2023-11-25T11:23:53.161Z,94323.97
2023-11-25T11:27:15.901Z,94322.03
2023-11-25T11:30:37.837Z,94322.53
2023-11-25T11:33:47.425Z,94319.25
2023-11-25T11:36:57.247Z,94313.94
2023-11-25T11:40:09.051Z,94309.41
2023-11-25T11:43:20.434Z,94304.50
2023-11-25T11:46:29.344Z,94299.56
2023-11-25T11:49:37.810Z,94309.69
2023-11-25T11:53:16.240Z,94293.66
2023-11-25T11:57:03.121Z,94301.69
2023-11-25T12:00:14.377Z,94301.16
2023-11-25T12:03:23.499Z,94300.16
2023-11-25T12:06:31.805Z,94299.81
2023-11-25T12:09:40.371Z,94304.78
2023-11-25T12:12:50.090Z,94291.34
2023-11-25T12:16:01.755Z,94305.91
2023-11-25T12:19:10.502Z,94306.88
2023-11-25T12:22:18.857Z,94307.19
2023-11-25T12:25:28.298Z,94302.78
2023-11-25T12:28:44.970Z,94306.41
2023-11-25T12:31:53.329Z,94304.47
2023-11-25T12:35:01.615Z,94282.50
2023-11-25T12:38:15.426Z,94274.97
2023-11-25T12:41:26.048Z,94259.88
2023-11-25T12:48:12.955Z,94257.72
2023-11-25T12:51:22.269Z,94253.31
2023-11-25T12:54:46.292Z,94247.22
2023-11-25T12:57:54.722Z,94250.31
2023-11-25T13:01:03.611Z,94248.03
2023-11-25T13:04:14.737Z,94241.81
2023-11-25T13:07:33.603Z,94230.03
2023-11-25T13:10:41.955Z,94237.09
2023-11-25T13:13:51.063Z,94243.31
2023-11-25T13:16:59.384Z,94233.81
2023-11-25T13:20:12.590Z,94209.06
2023-11-25T13:23:22.012Z,94234.75
2023-11-25T13:26:30.817Z,94233.59
2023-11-25T13:29:39.672Z,94219.84
2023-11-25T13:32:48.146Z,94220.81
2023-11-25T13:35:57.858Z,94212.94
2023-11-25T13:39:06.815Z,94212.91
2023-11-25T13:42:15.650Z,94204.44
2023-11-25T13:45:24.618Z,94197.16
2023-11-25T13:48:33.083Z,94206.66
2023-11-25T13:51:43.070Z,94197.97
2023-11-25T13:54:51.353Z,94189.81
2023-11-25T13:57:59.645Z,94200.78
2023-11-25T14:01:08.640Z,94200.78
2023-11-25T14:04:17.244Z,94198.50
2023-11-25T14:07:28.333Z,94192.09
2023-11-25T14:10:39.564Z,94190.13
2023-11-25T14:13:49.103Z,94188.66
2023-11-25T14:16:59.837Z,94180.81
2023-11-25T14:20:17.396Z,94185.34
2023-11-25T14:23:27.520Z,94189.47
2023-11-25T14:26:36.308Z,94185.34
2023-11-25T14:29:45.595Z,94173.53
2023-11-25T14:32:55.286Z,94171.72
2023-11-25T14:36:03.941Z,94172.25
2023-11-25T14:39:19.636Z,94173.03
2023-11-25T14:42:31.035Z,94162.59
2023-11-25T14:45:43.610Z,94166.31
2023-11-25T14:48:52.634Z,94165.19
2023-11-25T14:52:00.919Z,94163.03
2023-11-25T14:55:12.724Z,94162.31
2023-11-25T14:58:23.254Z,94164.94
2023-11-25T15:01:32.552Z,94168.03
2023-11-25T15:04:41.204Z,94161.63
2023-11-25T15:07:50.102Z,94156.84
2023-11-25T15:11:00.100Z,94151.81
2023-11-25T15:14:08.762Z,94158.66
2023-11-25T15:17:17.357Z,94168.81
2023-11-25T15:20:25.824Z,94166.72
2023-11-25T15:23:36.373Z,94171.59
2023-11-25T15:26:46.144Z,94170.44
2023-11-25T15:30:02.049Z,94164.91
2023-11-25T15:33:12.880Z,94175.69
2023-11-25T15:36:22.292Z,94165.56
2023-11-25T15:39:30.810Z,94175.53
2023-11-25T15:42:40.442Z,94174.38
2023-11-25T15:45:49.517Z,94173.75
2023-11-25T15:48:58.095Z,94186.28
2023-11-25T15:52:07.841Z,94168.78
2023-11-25T15:55:16.303Z,94177.63
2023-11-25T15:58:26.289Z,94172.09
2023-11-25T16:01:36.718Z,94172.25
2023-11-25T16:04:46.989Z,94172.25
2023-11-25T16:07:55.406Z,94165.25
2023-11-25T16:11:04.090Z,94162.75
2023-11-25T16:14:14.302Z,94163.41
2023-11-25T16:17:23.466Z,94168.50
2023-11-25T16:20:32.180Z,94165.22
2023-11-25T16:23:42.341Z,94160.94
2023-11-25T16:26:52.867Z,94160.28
2023-11-25T16:30:04.158Z,94149.84
2023-11-25T16:33:12.464Z,94145.91
2023-11-25T16:36:21.209Z,94148.53
2023-11-25T16:39:29.680Z,94138.75
2023-11-25T16:42:38.007Z,94144.59
2023-11-25T16:45:48.055Z,94146.94
2023-11-25T16:49:00.924Z,94142.19
2023-11-25T16:52:15.751Z,94148.88
2023-11-25T16:55:24.262Z,94146.09
2023-11-25T16:58:32.554Z,94151.19
2023-11-25T17:01:43.658Z,94150.06
2023-11-25T17:04:52.959Z,94143.66
2023-11-25T17:08:02.130Z,94151.66
2023-11-25T17:11:10.546Z,94152.69
2023-11-25T17:14:19.589Z,94162.50
2023-11-25T17:17:30.920Z,94149.41
2023-11-25T17:20:39.681Z,94163.66
2023-11-25T17:23:48.209Z,94161.72
2023-11-25T17:26:57.176Z,94176.09
2023-11-25T17:30:07.152Z,94165.47
2023-11-25T17:33:17.834Z,94156.28
2023-11-25T17:36:26.490Z,94168.72
2023-11-25T17:39:37.025Z,94169.69
2023-11-25T17:42:47.386Z,94170.81
2023-11-25T17:45:56.450Z,94162.63
2023-11-25T17:49:06.898Z,94179.38
2023-11-25T17:52:15.618Z,94171.03
2023-11-25T17:55:24.052Z,94169.88
2023-11-25T17:58:32.633Z,94172.81
2023-11-25T18:01:41.294Z,94168.06
2023-11-25T18:04:51.291Z,94172.66
2023-11-25T18:07:59.882Z,94172.50
2023-11-25T18:11:08.406Z,94166.94
2023-11-25T18:14:19.127Z,94166.13
2023-11-25T18:17:28.035Z,94162.38
2023-11-25T18:20:37.897Z,94167.25
2023-11-25T18:23:47.835Z,94159.75
2023-11-25T18:26:56.815Z,94167.59
2023-11-25T18:30:07.417Z,94155.13
2023-11-25T18:33:17.020Z,94163.47
2023-11-25T18:36:26.685Z,94160.06
2023-11-25T18:39:34.941Z,94159.56
2023-11-25T18:42:43.602Z,94162.69
2023-11-25T18:45:53.746Z,94155.66
2023-11-25T18:49:02.008Z,94157.78
2023-11-25T18:52:11.602Z,94158.59
2023-11-25T18:55:19.850Z,94159.44
2023-11-25T18:58:28.403Z,94153.06
2023-11-25T19:01:39.569Z,94166.97
2023-11-25T19:04:48.022Z,94167.31
2023-11-25T19:07:57.968Z,94161.44
2023-11-25T19:11:06.869Z,94164.84
2023-11-25T19:14:15.199Z,94155.53
2023-11-25T19:17:23.539Z,94159.44
2023-11-25T19:20:31.887Z,94161.25
2023-11-25T19:23:42.185Z,94167.31
2023-11-25T19:26:50.630Z,94159.81
2023-11-25T19:29:59.032Z,94158.50
2023-11-25T19:33:08.998Z,94165.88
2023-11-25T19:36:17.761Z,94157.81
2023-11-25T19:39:27.354Z,94163.72
2023-11-25T19:42:35.587Z,94166.84
2023-11-25T19:45:43.841Z,94172.09
2023-11-25T19:48:52.056Z,94172.41
2023-11-25T19:52:00.830Z,94176.66
2023-11-25T19:55:11.399Z,94184.03
2023-11-25T19:58:19.620Z,94181.41
2023-11-25T20:01:27.974Z,94184.22
2023-11-25T20:04:38.680Z,94182.75
2023-11-25T20:07:49.190Z,94195.84
2023-11-25T20:10:59.197Z,94198.16
2023-11-25T20:14:09.272Z,94195.84
2023-11-25T20:17:17.820Z,94197.00
2023-11-25T20:20:26.704Z,94194.88
2023-11-25T20:23:35.823Z,94196.00
2023-11-25T20:26:45.722Z,94198.63
2023-11-25T20:29:54.422Z,94200.78
2023-11-25T20:33:03.353Z,94200.13
2023-11-25T20:36:15.453Z,94203.72
2023-11-25T20:39:25.414Z,94207.63
2023-11-25T20:42:35.384Z,94207.31
2023-11-25T20:45:44.725Z,94209.63
2023-11-25T20:48:53.262Z,94212.41
2023-11-25T20:52:01.722Z,94202.06
2023-11-25T20:55:11.357Z,94206.19
2023-11-25T20:58:22.633Z,94209.25
2023-11-25T21:01:31.681Z,94213.06
2023-11-25T21:04:40.022Z,94210.25
2023-11-25T21:07:48.523Z,94215.50
2023-11-25T21:10:57.717Z,94216.31
2023-11-25T21:14:09.063Z,94216.81
2023-11-25T21:17:17.848Z,94214.41
2023-11-25T21:20:26.112Z,94215.88
2023-11-25T21:23:34.957Z,94216.56
2023-11-25T21:26:43.384Z,94216.56
2023-11-25T21:29:53.095Z,94229.81
2023-11-25T21:33:01.428Z,94231.13
2023-11-25T21:36:10.432Z,94210.16
2023-11-25T21:39:19.916Z,94222.44
2023-11-25T21:42:28.404Z,94214.25
2023-11-25T21:45:39.457Z,94218.16
2023-11-25T21:48:47.899Z,94224.72
2023-11-25T21:51:56.325Z,94217.34
2023-11-25T21:55:05.407Z,94213.28
2023-11-25T21:58:13.691Z,94209.03
2023-11-25T22:01:23.595Z,94215.06
2023-11-25T22:04:32.129Z,94212.31
2023-11-25T22:07:40.795Z,94223.41
2023-11-25T22:10:49.668Z,94217.84
2023-11-25T22:13:58.384Z,94226.00
2023-11-25T22:17:08.293Z,94225.84
2023-11-25T22:20:18.275Z,94229.97
2023-11-25T22:23:28.093Z,94224.72
2023-11-25T22:26:46.541Z,94237.34
2023-11-25T22:29:55.266Z,94238.13
2023-11-25T22:33:05.138Z,94231.47
2023-11-25T22:36:24.332Z,94237.19
2023-11-25T22:39:33.050Z,94235.50
2023-11-25T22:42:41.344Z,94244.69
2023-11-25T22:45:49.764Z,94246.16
2023-11-25T22:48:59.413Z,94245.34
2023-11-25T22:52:07.828Z,94252.81
2023-11-25T22:55:17.148Z,94254.66
2023-11-25T22:58:26.056Z,94239.75
2023-11-25T23:01:36.949Z,94241.09
2023-11-25T23:04:48.087Z,94244.31
2023-11-25T23:07:57.226Z,94261.34
2023-11-25T23:11:06.194Z,94253.50
2023-11-25T23:14:15.259Z,94258.03
2023-11-25T23:17:23.545Z,94271.72
2023-11-25T23:20:33.153Z,94267.59
2023-11-25T23:23:46.400Z,94264.97
2023-11-25T23:26:56.954Z,94266.47
2023-11-25T23:30:06.306Z,94266.47
2023-11-25T23:33:14.616Z,94271.19
2023-11-25T23:36:24.237Z,94270.38
2023-11-25T23:39:32.922Z,94271.84
2023-11-25T23:42:41.687Z,94278.66
2023-11-25T23:45:49.935Z,94283.25
2023-11-25T23:48:59.072Z,94284.09
2023-11-25T23:52:09.496Z,94284.38
2023-11-25T23:55:18.218Z,94284.09
2023-11-25T23:58:26.577Z,94284.72
